PWSweather.com
Personal Weather Stations
Station Observations
KOHCLEVE171
Cleveland, OH

Cleveland, OH

Lat: 41.48646164, Lon: -81.46408081

Elevation: 1059

Station Type:

High Low Average
Temperature 22.6°F-5.2°C 8.2°F-13.2°C 14.7°F-9.6°C
Dew Point 20.3°F-6.5°C 3.6°F-15.8°C 10.2°F-12.1°C
Winds 9.4 mph 15.1 kmh 2.0 mph 3.2 kmh 4.0 mph E6.4 kmh E
Wind Gusts 20.1 mph32.3 kmh 3.1 mph5.0 kmh 8.0 mph12.9 kmh
Humidity 93% 59% 82%
Pressure 30.29 in1025.7 mb 29.68 in1005.1 mb -
Precipitation 0.00 in0.0 mm - -
Hour Temp Dew Point Humidity Winds Wind Gusts Pressure Precip Precip Rate Daily Precip Total
12:04 AM 23.4°F-4.8°C 20.7°F-6.3°C 89% 6.5 mph NNE10.5 kmh NNE 9.8 mph15.8 kmh 29.71 in1006.1 mb 0.00 in0.0 mm 0.00 in0.0 mm 0.00 in0.0 mm
12:09 AM 23.4°F-4.8°C 20.7°F-6.3°C 89% 4.7 mph N7.6 kmh N 7.8 mph12.6 kmh 29.71 in1006.1 mb 0.00 in0.0 mm 0.00 in0.0 mm 0.00 in0.0 mm
12:14 AM 23.4°F-4.8°C 20.7°F-6.3°C 89% 6.7 mph N10.8 kmh N 11.0 mph17.7 kmh 29.71 in1006.1 mb 0.00 in0.0 mm 0.00 in0.0 mm 0.00 in0.0 mm
12:19 AM 23.4°F-4.8°C 20.7°F-6.3°C 89% 3.8 mph NE6.1 kmh NE 6.7 mph10.8 kmh 29.71 in1006.1 mb 0.00 in0.0 mm 0.00 in0.0 mm 0.00 in0.0 mm
12:24 AM 23.2°F-4.9°C 20.5°F-6.4°C 89% 6.0 mph N9.7 kmh N 9.6 mph15.4 kmh 29.70 in1005.8 mb 0.00 in0.0 mm 0.00 in0.0 mm 0.00 in0.0 mm
12:29 AM 23.2°F-4.9°C 20.5°F-6.4°C 89% 4.3 mph NNE6.9 kmh NNE 6.3 mph10.1 kmh 29.70 in1005.8 mb 0.00 in0.0 mm 0.00 in0.0 mm 0.00 in0.0 mm
12:34 AM 23.2°F-4.9°C 20.5°F-6.4°C 89% 4.9 mph NNE7.9 kmh NNE 7.6 mph12.2 kmh 29.70 in1005.8 mb 0.00 in0.0 mm 0.00 in0.0 mm 0.00 in0.0 mm
12:39 AM 23.0°F-5.0°C 20.3°F-6.5°C 89% 5.8 mph NNE9.3 kmh NNE 10.3 mph16.6 kmh 29.69 in1005.4 mb 0.00 in0.0 mm 0.00 in0.0 mm 0.00 in0.0 mm
12:44 AM 23.0°F-5.0°C 20.5°F-6.4°C 90% 5.6 mph N9.0 kmh N 8.7 mph14.0 kmh 29.70 in1005.8 mb 0.00 in0.0 mm 0.00 in0.0 mm 0.00 in0.0 mm
12:49 AM 22.8°F-5.1°C 20.3°F-6.5°C 90% 4.5 mph NE7.2 kmh NE 6.7 mph10.8 kmh 29.70 in1005.8 mb 0.00 in0.0 mm 0.00 in0.0 mm 0.00 in0.0 mm
12:54 AM 22.8°F-5.1°C 20.3°F-6.5°C 90% 4.5 mph N7.2 kmh N 10.5 mph16.9 kmh 29.70 in1005.8 mb 0.00 in0.0 mm 0.00 in0.0 mm 0.00 in0.0 mm
01:04 AM 22.6°F-5.2°C 20.1°F-6.6°C 90% 5.6 mph NE9.0 kmh NE 8.5 mph13.7 kmh 29.71 in1006.1 mb 0.00 in0.0 mm 0.00 in0.0 mm 0.00 in0.0 mm
01:09 AM 22.5°F-5.3°C 19.9°F-6.7°C 90% 4.9 mph NNE7.9 kmh NNE 8.1 mph13.0 kmh 29.71 in1006.1 mb 0.00 in0.0 mm 0.00 in0.0 mm 0.00 in0.0 mm
01:14 AM 22.5°F-5.3°C 19.9°F-6.7°C 90% 4.9 mph NNE7.9 kmh NNE 8.1 mph13.0 kmh 29.71 in1006.1 mb 0.00 in0.0 mm 0.00 in0.0 mm 0.00 in0.0 mm
01:19 AM 22.5°F-5.3°C 20.3°F-6.5°C 91% 6.0 mph NE9.7 kmh NE 11.0 mph17.7 kmh 29.71 in1006.1 mb 0.00 in0.0 mm 0.00 in0.0 mm 0.00 in0.0 mm
01:24 AM 22.5°F-5.3°C 20.3°F-6.5°C 91% 6.9 mph N11.1 kmh N 11.2 mph18.0 kmh 29.70 in1005.8 mb 0.00 in0.0 mm 0.00 in0.0 mm 0.00 in0.0 mm
01:29 AM 22.3°F-5.4°C 20.1°F-6.6°C 91% 3.8 mph NE6.1 kmh NE 4.9 mph7.9 kmh 29.70 in1005.8 mb 0.00 in0.0 mm 0.00 in0.0 mm 0.00 in0.0 mm
01:34 AM 22.3°F-5.4°C 20.1°F-6.6°C 91% 4.7 mph N7.6 kmh N 6.7 mph10.8 kmh 29.70 in1005.8 mb 0.00 in0.0 mm 0.00 in0.0 mm 0.00 in0.0 mm
01:39 AM 22.1°F-5.5°C 19.9°F-6.7°C 91% 6.7 mph NNE10.8 kmh NNE 11.6 mph18.7 kmh 29.70 in1005.8 mb 0.00 in0.0 mm 0.00 in0.0 mm 0.00 in0.0 mm
01:44 AM 21.7°F-5.7°C 19.6°F-6.9°C 91% 4.7 mph NNE7.6 kmh NNE 6.9 mph11.1 kmh 29.70 in1005.8 mb 0.00 in0.0 mm 0.00 in0.0 mm 0.00 in0.0 mm
01:49 AM 21.6°F-5.8°C 19.4°F-7.0°C 91% 7.6 mph N12.2 kmh N 11.0 mph17.7 kmh 29.68 in1005.1 mb 0.00 in0.0 mm 0.00 in0.0 mm 0.00 in0.0 mm
01:54 AM 21.2°F-6.0°C 19.0°F-7.2°C 91% 6.7 mph NNE10.8 kmh NNE 14.1 mph22.7 kmh 29.68 in1005.1 mb 0.00 in0.0 mm 0.00 in0.0 mm 0.00 in0.0 mm
01:59 AM 20.8°F-6.2°C 18.7°F-7.4°C 91% 4.9 mph NNE7.9 kmh NNE 8.3 mph13.4 kmh 29.68 in1005.1 mb 0.00 in0.0 mm 0.00 in0.0 mm 0.00 in0.0 mm
02:04 AM 20.7°F-6.3°C 18.5°F-7.5°C 91% 7.4 mph N11.9 kmh N 9.6 mph15.4 kmh 29.69 in1005.4 mb 0.00 in0.0 mm 0.00 in0.0 mm 0.00 in0.0 mm
02:09 AM 20.3°F-6.5°C 18.1°F-7.7°C 91% 3.8 mph N6.1 kmh N 6.0 mph9.7 kmh 29.69 in1005.4 mb 0.00 in0.0 mm 0.00 in0.0 mm 0.00 in0.0 mm
02:14 AM 20.3°F-6.5°C 18.7°F-7.4°C 93% 4.0 mph NNE6.4 kmh NNE 7.2 mph11.6 kmh 29.69 in1005.4 mb 0.00 in0.0 mm 0.00 in0.0 mm 0.00 in0.0 mm
02:19 AM 20.1°F-6.6°C 18.0°F-7.8°C 91% 6.0 mph NE9.7 kmh NE 10.7 mph17.2 kmh 29.68 in1005.1 mb 0.00 in0.0 mm 0.00 in0.0 mm 0.00 in0.0 mm
02:24 AM 20.1°F-6.6°C 18.0°F-7.8°C 91% 5.8 mph NNE9.3 kmh NNE 12.5 mph20.1 kmh 29.68 in1005.1 mb 0.00 in0.0 mm 0.00 in0.0 mm 0.00 in0.0 mm
02:29 AM 19.9°F-6.7°C 17.8°F-7.9°C 91% 4.7 mph NNE7.6 kmh NNE 10.7 mph17.2 kmh 29.69 in1005.4 mb 0.00 in0.0 mm 0.00 in0.0 mm 0.00 in0.0 mm
02:34 AM 19.8°F-6.8°C 17.6°F-8.0°C 91% 6.5 mph NNE10.5 kmh NNE 10.3 mph16.6 kmh 29.68 in1005.1 mb 0.00 in0.0 mm 0.00 in0.0 mm 0.00 in0.0 mm
02:39 AM 19.6°F-6.9°C 17.4°F-8.1°C 91% 6.7 mph N10.8 kmh N 9.8 mph15.8 kmh 29.69 in1005.4 mb 0.00 in0.0 mm 0.00 in0.0 mm 0.00 in0.0 mm
02:44 AM 19.6°F-6.9°C 17.4°F-8.1°C 91% 5.1 mph N8.2 kmh N 8.9 mph14.3 kmh 29.70 in1005.8 mb 0.00 in0.0 mm 0.00 in0.0 mm 0.00 in0.0 mm
02:49 AM 19.6°F-6.9°C 17.4°F-8.1°C 91% 4.5 mph NE7.2 kmh NE 8.1 mph13.0 kmh 29.70 in1005.8 mb 0.00 in0.0 mm 0.00 in0.0 mm 0.00 in0.0 mm
02:54 AM 19.4°F-7.0°C 17.2°F-8.2°C 91% 5.6 mph NE9.0 kmh NE 11.6 mph18.7 kmh 29.69 in1005.4 mb 0.00 in0.0 mm 0.00 in0.0 mm 0.00 in0.0 mm
02:59 AM 19.0°F-7.2°C 16.9°F-8.4°C 91% 9.2 mph NNE14.8 kmh NNE 13.9 mph22.4 kmh 29.69 in1005.4 mb 0.00 in0.0 mm 0.00 in0.0 mm 0.00 in0.0 mm
03:04 AM 19.0°F-7.2°C 16.9°F-8.4°C 91% 7.2 mph NNE11.6 kmh NNE 12.8 mph20.6 kmh 29.70 in1005.8 mb 0.00 in0.0 mm 0.00 in0.0 mm 0.00 in0.0 mm
03:09 AM 18.9°F-7.3°C 16.7°F-8.5°C 91% 5.1 mph NNE8.2 kmh NNE 8.5 mph13.7 kmh 29.70 in1005.8 mb 0.00 in0.0 mm 0.00 in0.0 mm 0.00 in0.0 mm
03:14 AM 18.5°F-7.5°C 16.3°F-8.7°C 91% 6.3 mph N10.1 kmh N 10.3 mph16.6 kmh 29.70 in1005.8 mb 0.00 in0.0 mm 0.00 in0.0 mm 0.00 in0.0 mm
03:19 AM 18.5°F-7.5°C 16.3°F-8.7°C 91% 4.7 mph NNE7.6 kmh NNE 11.2 mph18.0 kmh 29.70 in1005.8 mb 0.00 in0.0 mm 0.00 in0.0 mm 0.00 in0.0 mm
03:24 AM 18.5°F-7.5°C 16.3°F-8.7°C 91% 4.3 mph N6.9 kmh N 6.7 mph10.8 kmh 29.71 in1006.1 mb 0.00 in0.0 mm 0.00 in0.0 mm 0.00 in0.0 mm
03:29 AM 18.3°F-7.6°C 16.2°F-8.8°C 91% 3.6 mph NNE5.8 kmh NNE 5.6 mph9.0 kmh 29.71 in1006.1 mb 0.00 in0.0 mm 0.00 in0.0 mm 0.00 in0.0 mm
03:34 AM 18.1°F-7.7°C 16.0°F-8.9°C 91% 5.1 mph NNE8.2 kmh NNE 9.6 mph15.4 kmh 29.72 in1006.4 mb 0.00 in0.0 mm 0.00 in0.0 mm 0.00 in0.0 mm
03:39 AM 18.1°F-7.7°C 16.0°F-8.9°C 91% 4.7 mph N7.6 kmh N 6.9 mph11.1 kmh 29.72 in1006.4 mb 0.00 in0.0 mm 0.00 in0.0 mm 0.00 in0.0 mm
03:44 AM 18.0°F-7.8°C 15.8°F-9.0°C 91% 4.5 mph N7.2 kmh N 7.4 mph11.9 kmh 29.73 in1006.8 mb 0.00 in0.0 mm 0.00 in0.0 mm 0.00 in0.0 mm
03:49 AM 18.0°F-7.8°C 15.8°F-9.0°C 91% 4.5 mph N7.2 kmh N 7.2 mph11.6 kmh 29.74 in1007.1 mb 0.00 in0.0 mm 0.00 in0.0 mm 0.00 in0.0 mm
03:54 AM 18.0°F-7.8°C 15.8°F-9.0°C 91% 6.7 mph N10.8 kmh N 9.4 mph15.1 kmh 29.74 in1007.1 mb 0.00 in0.0 mm 0.00 in0.0 mm 0.00 in0.0 mm
03:59 AM 17.8°F-7.9°C 15.6°F-9.1°C 91% 5.1 mph NNE8.2 kmh NNE 6.9 mph11.1 kmh 29.74 in1007.1 mb 0.00 in0.0 mm 0.00 in0.0 mm 0.00 in0.0 mm
04:04 AM 17.8°F-7.9°C 15.6°F-9.1°C 91% 6.9 mph N11.1 kmh N 11.4 mph18.3 kmh 29.74 in1007.1 mb 0.00 in0.0 mm 0.00 in0.0 mm 0.00 in0.0 mm
04:09 AM 17.6°F-8.0°C 15.4°F-9.2°C 91% 4.9 mph N7.9 kmh N 9.8 mph15.8 kmh 29.75 in1007.5 mb 0.00 in0.0 mm 0.00 in0.0 mm 0.00 in0.0 mm
04:14 AM 17.6°F-8.0°C 15.4°F-9.2°C 91% 4.9 mph NE7.9 kmh NE 11.9 mph19.2 kmh 29.75 in1007.5 mb 0.00 in0.0 mm 0.00 in0.0 mm 0.00 in0.0 mm
04:19 AM 17.6°F-8.0°C 15.4°F-9.2°C 91% 4.7 mph NNE7.6 kmh NNE 9.8 mph15.8 kmh 29.75 in1007.5 mb 0.00 in0.0 mm 0.00 in0.0 mm 0.00 in0.0 mm
04:24 AM 17.6°F-8.0°C 15.4°F-9.2°C 91% 5.1 mph NE8.2 kmh NE 9.4 mph15.1 kmh 29.75 in1007.5 mb 0.00 in0.0 mm 0.00 in0.0 mm 0.00 in0.0 mm
04:29 AM 17.6°F-8.0°C 15.4°F-9.2°C 91% 5.1 mph NNE8.2 kmh NNE 7.4 mph11.9 kmh 29.74 in1007.1 mb 0.00 in0.0 mm 0.00 in0.0 mm 0.00 in0.0 mm
04:34 AM 17.4°F-8.1°C 15.3°F-9.3°C 91% 4.9 mph NNE7.9 kmh NNE 6.3 mph10.1 kmh 29.74 in1007.1 mb 0.00 in0.0 mm 0.00 in0.0 mm 0.00 in0.0 mm
04:39 AM 17.2°F-8.2°C 15.1°F-9.4°C 91% 3.4 mph N5.5 kmh N 4.7 mph7.6 kmh 29.74 in1007.1 mb 0.00 in0.0 mm 0.00 in0.0 mm 0.00 in0.0 mm
04:44 AM 17.2°F-8.2°C 15.1°F-9.4°C 91% 3.1 mph NNE5.0 kmh NNE 4.3 mph6.9 kmh 29.74 in1007.1 mb 0.00 in0.0 mm 0.00 in0.0 mm 0.00 in0.0 mm
04:49 AM 17.4°F-8.1°C 15.3°F-9.3°C 91% 4.3 mph N6.9 kmh N 5.8 mph9.3 kmh 29.75 in1007.5 mb 0.00 in0.0 mm 0.00 in0.0 mm 0.00 in0.0 mm
04:54 AM 17.2°F-8.2°C 15.1°F-9.4°C 91% 3.6 mph NNE5.8 kmh NNE 4.7 mph7.6 kmh 29.74 in1007.1 mb 0.00 in0.0 mm 0.00 in0.0 mm 0.00 in0.0 mm
04:59 AM 17.2°F-8.2°C 15.1°F-9.4°C 91% 4.0 mph N6.4 kmh N 6.5 mph10.5 kmh 29.74 in1007.1 mb 0.00 in0.0 mm 0.00 in0.0 mm 0.00 in0.0 mm
05:04 AM 17.1°F-8.3°C 14.7°F-9.6°C 90% 5.1 mph NNE8.2 kmh NNE 8.5 mph13.7 kmh 29.74 in1007.1 mb 0.00 in0.0 mm 0.00 in0.0 mm 0.00 in0.0 mm
05:09 AM 16.9°F-8.4°C 14.5°F-9.7°C 90% 4.0 mph N6.4 kmh N 7.8 mph12.6 kmh 29.75 in1007.5 mb 0.00 in0.0 mm 0.00 in0.0 mm 0.00 in0.0 mm
05:14 AM 16.7°F-8.5°C 14.4°F-9.8°C 90% 5.8 mph NNE9.3 kmh NNE 11.0 mph17.7 kmh 29.75 in1007.5 mb 0.00 in0.0 mm 0.00 in0.0 mm 0.00 in0.0 mm
05:19 AM 16.7°F-8.5°C 14.4°F-9.8°C 90% 4.9 mph NE7.9 kmh NE 7.6 mph12.2 kmh 29.75 in1007.5 mb 0.00 in0.0 mm 0.00 in0.0 mm 0.00 in0.0 mm
05:24 AM 16.7°F-8.5°C 14.4°F-9.8°C 90% 3.6 mph NE5.8 kmh NE 5.4 mph8.7 kmh 29.75 in1007.5 mb 0.00 in0.0 mm 0.00 in0.0 mm 0.00 in0.0 mm
05:29 AM 16.7°F-8.5°C 14.4°F-9.8°C 90% 3.4 mph N5.5 kmh N 4.3 mph6.9 kmh 29.75 in1007.5 mb 0.00 in0.0 mm 0.00 in0.0 mm 0.00 in0.0 mm
05:34 AM 16.7°F-8.5°C 14.4°F-9.8°C 90% 3.4 mph N5.5 kmh N 5.4 mph8.7 kmh 29.75 in1007.5 mb 0.00 in0.0 mm 0.00 in0.0 mm 0.00 in0.0 mm
05:39 AM 16.7°F-8.5°C 14.4°F-9.8°C 90% 6.0 mph N9.7 kmh N 8.7 mph14.0 kmh 29.75 in1007.5 mb 0.00 in0.0 mm 0.00 in0.0 mm 0.00 in0.0 mm
05:44 AM 16.9°F-8.4°C 14.5°F-9.7°C 90% 4.0 mph NE6.4 kmh NE 7.4 mph11.9 kmh 29.75 in1007.5 mb 0.00 in0.0 mm 0.00 in0.0 mm 0.00 in0.0 mm
05:49 AM 16.9°F-8.4°C 14.5°F-9.7°C 90% 2.5 mph N4.0 kmh N 4.3 mph6.9 kmh 29.77 in1008.1 mb 0.00 in0.0 mm 0.00 in0.0 mm 0.00 in0.0 mm
05:54 AM 17.1°F-8.3°C 14.7°F-9.6°C 90% 4.5 mph NE7.2 kmh NE 8.7 mph14.0 kmh 29.77 in1008.1 mb 0.00 in0.0 mm 0.00 in0.0 mm 0.00 in0.0 mm
05:59 AM 17.2°F-8.2°C 14.9°F-9.5°C 90% 3.8 mph N6.1 kmh N 6.3 mph10.1 kmh 29.77 in1008.1 mb 0.00 in0.0 mm 0.00 in0.0 mm 0.00 in0.0 mm
06:04 AM 17.2°F-8.2°C 14.9°F-9.5°C 90% 4.5 mph NNE7.2 kmh NNE 7.2 mph11.6 kmh 29.78 in1008.5 mb 0.00 in0.0 mm 0.00 in0.0 mm 0.00 in0.0 mm
06:09 AM 17.4°F-8.1°C 15.1°F-9.4°C 90% 5.4 mph NNE8.7 kmh NNE 9.4 mph15.1 kmh 29.79 in1008.8 mb 0.00 in0.0 mm 0.00 in0.0 mm 0.00 in0.0 mm
06:14 AM 17.4°F-8.1°C 15.1°F-9.4°C 90% 3.1 mph NNE5.0 kmh NNE 6.0 mph9.7 kmh 29.78 in1008.5 mb 0.00 in0.0 mm 0.00 in0.0 mm 0.00 in0.0 mm
06:19 AM 17.4°F-8.1°C 15.1°F-9.4°C 90% 6.7 mph NNE10.8 kmh NNE 10.3 mph16.6 kmh 29.80 in1009.1 mb 0.00 in0.0 mm 0.00 in0.0 mm 0.00 in0.0 mm
06:24 AM 17.4°F-8.1°C 15.1°F-9.4°C 90% 4.3 mph N6.9 kmh N 7.4 mph11.9 kmh 29.80 in1009.1 mb 0.00 in0.0 mm 0.00 in0.0 mm 0.00 in0.0 mm
06:29 AM 17.2°F-8.2°C 14.9°F-9.5°C 90% 4.7 mph N7.6 kmh N 8.3 mph13.4 kmh 29.80 in1009.1 mb 0.00 in0.0 mm 0.00 in0.0 mm 0.00 in0.0 mm
06:34 AM 17.2°F-8.2°C 14.9°F-9.5°C 90% 6.7 mph N10.8 kmh N 11.4 mph18.3 kmh 29.81 in1009.5 mb 0.00 in0.0 mm 0.00 in0.0 mm 0.00 in0.0 mm
06:39 AM 17.1°F-8.3°C 14.7°F-9.6°C 90% 6.7 mph N10.8 kmh N 13.9 mph22.4 kmh 29.80 in1009.1 mb 0.00 in0.0 mm 0.00 in0.0 mm 0.00 in0.0 mm
06:44 AM 16.9°F-8.4°C 14.5°F-9.7°C 90% 6.0 mph N9.7 kmh N 9.8 mph15.8 kmh 29.81 in1009.5 mb 0.00 in0.0 mm 0.00 in0.0 mm 0.00 in0.0 mm
06:49 AM 16.9°F-8.4°C 14.5°F-9.7°C 90% 6.3 mph N10.1 kmh N 9.4 mph15.1 kmh 29.83 in1010.2 mb 0.00 in0.0 mm 0.00 in0.0 mm 0.00 in0.0 mm
06:54 AM 16.7°F-8.5°C 14.4°F-9.8°C 90% 7.4 mph N11.9 kmh N 12.5 mph20.1 kmh 29.83 in1010.2 mb 0.00 in0.0 mm 0.00 in0.0 mm 0.00 in0.0 mm
06:59 AM 16.9°F-8.4°C 14.5°F-9.7°C 90% 3.1 mph N5.0 kmh N 5.1 mph8.2 kmh 29.83 in1010.2 mb 0.00 in0.0 mm 0.00 in0.0 mm 0.00 in0.0 mm
07:04 AM 16.7°F-8.5°C 14.0°F-10.0°C 89% 4.5 mph NNE7.2 kmh NNE 7.8 mph12.6 kmh 29.83 in1010.2 mb 0.00 in0.0 mm 0.00 in0.0 mm 0.00 in0.0 mm
07:09 AM 16.7°F-8.5°C 14.4°F-9.8°C 90% 4.3 mph NNE6.9 kmh NNE 5.8 mph9.3 kmh 29.84 in1010.5 mb 0.00 in0.0 mm 0.00 in0.0 mm 0.00 in0.0 mm
07:14 AM 16.7°F-8.5°C 14.4°F-9.8°C 90% 3.6 mph N5.8 kmh N 7.6 mph12.2 kmh 29.85 in1010.8 mb 0.00 in0.0 mm 0.00 in0.0 mm 0.00 in0.0 mm
07:19 AM 16.7°F-8.5°C 14.4°F-9.8°C 90% 3.8 mph NNE6.1 kmh NNE 8.5 mph13.7 kmh 29.84 in1010.5 mb 0.00 in0.0 mm 0.00 in0.0 mm 0.00 in0.0 mm
07:24 AM 16.7°F-8.5°C 14.0°F-10.0°C 89% 3.4 mph N5.5 kmh N 5.4 mph8.7 kmh 29.85 in1010.8 mb 0.00 in0.0 mm 0.00 in0.0 mm 0.00 in0.0 mm
07:29 AM 16.5°F-8.6°C 14.2°F-9.9°C 90% 7.2 mph NNE11.6 kmh NNE 10.1 mph16.3 kmh 29.86 in1011.2 mb 0.00 in0.0 mm 0.00 in0.0 mm 0.00 in0.0 mm
07:34 AM 16.5°F-8.6°C 14.2°F-9.9°C 90% 3.8 mph N6.1 kmh N 6.3 mph10.1 kmh 29.87 in1011.5 mb 0.00 in0.0 mm 0.00 in0.0 mm 0.00 in0.0 mm
07:39 AM 16.5°F-8.6°C 13.8°F-10.1°C 89% 6.3 mph NE10.1 kmh NE 11.2 mph18.0 kmh 29.87 in1011.5 mb 0.00 in0.0 mm 0.00 in0.0 mm 0.00 in0.0 mm
07:44 AM 16.3°F-8.7°C 14.0°F-10.0°C 90% 6.9 mph NNE11.1 kmh NNE 9.2 mph14.8 kmh 29.87 in1011.5 mb 0.00 in0.0 mm 0.00 in0.0 mm 0.00 in0.0 mm
07:49 AM 16.3°F-8.7°C 13.6°F-10.2°C 89% 5.8 mph N9.3 kmh N 10.1 mph16.3 kmh 29.87 in1011.5 mb 0.00 in0.0 mm 0.00 in0.0 mm 0.00 in0.0 mm
07:54 AM 16.2°F-8.8°C 13.8°F-10.1°C 90% 3.4 mph N5.5 kmh N 5.1 mph8.2 kmh 29.88 in1011.9 mb 0.00 in0.0 mm 0.00 in0.0 mm 0.00 in0.0 mm
07:59 AM 16.2°F-8.8°C 13.8°F-10.1°C 90% 2.7 mph NE4.3 kmh NE 4.9 mph7.9 kmh 29.88 in1011.9 mb 0.00 in0.0 mm 0.00 in0.0 mm 0.00 in0.0 mm
08:04 AM 16.2°F-8.8°C 13.8°F-10.1°C 90% 5.8 mph NNE9.3 kmh NNE 8.9 mph14.3 kmh 29.88 in1011.9 mb 0.00 in0.0 mm 0.00 in0.0 mm 0.00 in0.0 mm
08:09 AM 16.2°F-8.8°C 13.8°F-10.1°C 90% 3.1 mph N5.0 kmh N 5.1 mph8.2 kmh 29.89 in1012.2 mb 0.00 in0.0 mm 0.00 in0.0 mm 0.00 in0.0 mm
08:14 AM 16.2°F-8.8°C 13.8°F-10.1°C 90% 7.4 mph NNE11.9 kmh NNE 12.3 mph19.8 kmh 29.90 in1012.5 mb 0.00 in0.0 mm 0.00 in0.0 mm 0.00 in0.0 mm
08:19 AM 16.2°F-8.8°C 13.5°F-10.3°C 89% 5.1 mph NNE8.2 kmh NNE 10.1 mph16.3 kmh 29.90 in1012.5 mb 0.00 in0.0 mm 0.00 in0.0 mm 0.00 in0.0 mm
08:24 AM 16.2°F-8.8°C 13.8°F-10.1°C 90% 3.1 mph N5.0 kmh N 4.9 mph7.9 kmh 29.90 in1012.5 mb 0.00 in0.0 mm 0.00 in0.0 mm 0.00 in0.0 mm
08:29 AM 16.3°F-8.7°C 13.6°F-10.2°C 89% 3.4 mph 5.5 kmh 5.6 mph9.0 kmh 29.90 in1012.5 mb 0.00 in0.0 mm 0.00 in0.0 mm 0.00 in0.0 mm
08:34 AM 16.3°F-8.7°C 13.6°F-10.2°C 89% 7.6 mph N12.2 kmh N 13.4 mph21.6 kmh 29.90 in1012.5 mb 0.00 in0.0 mm 0.00 in0.0 mm 0.00 in0.0 mm
08:39 AM 16.2°F-8.8°C 13.5°F-10.3°C 89% 4.5 mph NNE7.2 kmh NNE 6.7 mph10.8 kmh 29.91 in1012.9 mb 0.00 in0.0 mm 0.00 in0.0 mm 0.00 in0.0 mm
08:44 AM 16.5°F-8.6°C 13.8°F-10.1°C 89% 6.7 mph N10.8 kmh N 9.8 mph15.8 kmh 29.91 in1012.9 mb 0.00 in0.0 mm 0.00 in0.0 mm 0.00 in0.0 mm
08:49 AM 16.5°F-8.6°C 13.6°F-10.2°C 88% 8.1 mph NNE13.0 kmh NNE 19.2 mph30.9 kmh 29.91 in1012.9 mb 0.00 in0.0 mm 0.00 in0.0 mm 0.00 in0.0 mm
08:54 AM 16.5°F-8.6°C 13.1°F-10.5°C 86% 4.9 mph N7.9 kmh N 8.1 mph13.0 kmh 29.92 in1013.2 mb 0.00 in0.0 mm 0.00 in0.0 mm 0.00 in0.0 mm
08:59 AM 16.5°F-8.6°C 12.7°F-10.7°C 85% 4.7 mph NNE7.6 kmh NNE 7.8 mph12.6 kmh 29.92 in1013.2 mb 0.00 in0.0 mm 0.00 in0.0 mm 0.00 in0.0 mm
09:04 AM 16.5°F-8.6°C 12.6°F-10.8°C 84% 5.1 mph N8.2 kmh N 7.4 mph11.9 kmh 29.92 in1013.2 mb 0.00 in0.0 mm 0.00 in0.0 mm 0.00 in0.0 mm
09:09 AM 17.6°F-8.0°C 13.6°F-10.2°C 84% 9.4 mph N15.1 kmh N 20.1 mph32.3 kmh 29.93 in1013.5 mb 0.00 in0.0 mm 0.00 in0.0 mm 0.00 in0.0 mm
09:14 AM 16.9°F-8.4°C 10.4°F-12.0°C 75% 5.6 mph N9.0 kmh N 9.4 mph15.1 kmh 29.93 in1013.5 mb 0.00 in0.0 mm 0.00 in0.0 mm 0.00 in0.0 mm
09:19 AM 16.3°F-8.7°C 8.6°F-13.0°C 71% 6.0 mph N9.7 kmh N 18.3 mph29.5 kmh 29.94 in1013.9 mb 0.00 in0.0 mm 0.00 in0.0 mm 0.00 in0.0 mm
09:23 AM 16.2°F-8.8°C 8.1°F-13.3°C 70% 5.1 mph N8.2 kmh N 8.5 mph13.7 kmh 29.94 in1013.9 mb 0.00 in0.0 mm 0.00 in0.0 mm 0.00 in0.0 mm
09:28 AM 15.8°F-9.0°C 7.2°F-13.8°C 68% 5.4 mph NNE8.7 kmh NNE 11.0 mph17.7 kmh 29.94 in1013.9 mb 0.00 in0.0 mm 0.00 in0.0 mm 0.00 in0.0 mm
09:33 AM 15.8°F-9.0°C 5.7°F-14.6°C 64% 6.3 mph N10.1 kmh N 9.2 mph14.8 kmh 29.95 in1014.2 mb 0.00 in0.0 mm 0.00 in0.0 mm 0.00 in0.0 mm
09:38 AM 15.6°F-9.1°C 5.2°F-14.9°C 63% 4.7 mph N7.6 kmh N 9.4 mph15.1 kmh 29.95 in1014.2 mb 0.00 in0.0 mm 0.00 in0.0 mm 0.00 in0.0 mm
09:43 AM 15.4°F-9.2°C 4.8°F-15.1°C 62% 4.9 mph N7.9 kmh N 6.9 mph11.1 kmh 29.96 in1014.6 mb 0.00 in0.0 mm 0.00 in0.0 mm 0.00 in0.0 mm
09:48 AM 15.3°F-9.3°C 3.6°F-15.8°C 59% 5.8 mph NNE9.3 kmh NNE 10.5 mph16.9 kmh 29.96 in1014.6 mb 0.00 in0.0 mm 0.00 in0.0 mm 0.00 in0.0 mm
09:53 AM 15.3°F-9.3°C 5.0°F-15.0°C 63% 4.7 mph NNE7.6 kmh NNE 7.6 mph12.2 kmh 29.96 in1014.6 mb 0.00 in0.0 mm 0.00 in0.0 mm 0.00 in0.0 mm
09:58 AM 15.3°F-9.3°C 5.5°F-14.7°C 65% 3.6 mph N5.8 kmh N 5.6 mph9.0 kmh 29.96 in1014.6 mb 0.00 in0.0 mm 0.00 in0.0 mm 0.00 in0.0 mm
10:03 AM 15.4°F-9.2°C 6.4°F-14.2°C 67% 4.9 mph N7.9 kmh N 7.8 mph12.6 kmh 29.96 in1014.6 mb 0.00 in0.0 mm 0.00 in0.0 mm 0.00 in0.0 mm
10:08 AM 15.4°F-9.2°C 6.8°F-14.0°C 68% 5.4 mph N8.7 kmh N 11.2 mph18.0 kmh 29.97 in1014.9 mb 0.00 in0.0 mm 0.00 in0.0 mm 0.00 in0.0 mm
10:13 AM 15.6°F-9.1°C 7.5°F-13.6°C 70% 4.0 mph N6.4 kmh N 5.8 mph9.3 kmh 29.97 in1014.9 mb 0.00 in0.0 mm 0.00 in0.0 mm 0.00 in0.0 mm
10:18 AM 16.2°F-8.8°C 8.1°F-13.3°C 70% 6.3 mph N10.1 kmh N 12.3 mph19.8 kmh 29.97 in1014.9 mb 0.00 in0.0 mm 0.00 in0.0 mm 0.00 in0.0 mm
10:23 AM 16.2°F-8.8°C 8.1°F-13.3°C 70% 6.0 mph N9.7 kmh N 11.0 mph17.7 kmh 29.98 in1015.2 mb 0.00 in0.0 mm 0.00 in0.0 mm 0.00 in0.0 mm
10:28 AM 16.2°F-8.8°C 8.1°F-13.3°C 70% 3.8 mph N6.1 kmh N 8.3 mph13.4 kmh 29.98 in1015.2 mb 0.00 in0.0 mm 0.00 in0.0 mm 0.00 in0.0 mm
10:33 AM 16.2°F-8.8°C 7.7°F-13.5°C 69% 4.9 mph 7.9 kmh 8.7 mph14.0 kmh 29.98 in1015.2 mb 0.00 in0.0 mm 0.00 in0.0 mm 0.00 in0.0 mm
10:38 AM 16.3°F-8.7°C 8.2°F-13.2°C 70% 4.5 mph N7.2 kmh N 6.9 mph11.1 kmh 29.98 in1015.2 mb 0.00 in0.0 mm 0.00 in0.0 mm 0.00 in0.0 mm
10:43 AM 16.5°F-8.6°C 8.4°F-13.1°C 70% 4.7 mph N7.6 kmh N 9.6 mph15.4 kmh 29.98 in1015.2 mb 0.00 in0.0 mm 0.00 in0.0 mm 0.00 in0.0 mm
10:48 AM 16.3°F-8.7°C 8.2°F-13.2°C 70% 5.4 mph N8.7 kmh N 8.1 mph13.0 kmh 29.98 in1015.2 mb 0.00 in0.0 mm 0.00 in0.0 mm 0.00 in0.0 mm
10:53 AM 16.3°F-8.7°C 8.6°F-13.0°C 71% 5.1 mph N8.2 kmh N 7.6 mph12.2 kmh 29.98 in1015.2 mb 0.00 in0.0 mm 0.00 in0.0 mm 0.00 in0.0 mm
10:58 AM 16.5°F-8.6°C 8.8°F-12.9°C 71% 4.0 mph N6.4 kmh N 6.0 mph9.7 kmh 29.98 in1015.2 mb 0.00 in0.0 mm 0.00 in0.0 mm 0.00 in0.0 mm
11:03 AM 16.7°F-8.5°C 9.0°F-12.8°C 71% 4.0 mph NNE6.4 kmh NNE 7.2 mph11.6 kmh 29.98 in1015.2 mb 0.00 in0.0 mm 0.00 in0.0 mm 0.00 in0.0 mm
11:08 AM 16.7°F-8.5°C 9.0°F-12.8°C 71% 4.9 mph NNE7.9 kmh NNE 10.7 mph17.2 kmh 29.99 in1015.6 mb 0.00 in0.0 mm 0.00 in0.0 mm 0.00 in0.0 mm
11:13 AM 16.5°F-8.6°C 9.3°F-12.6°C 73% 5.4 mph N8.7 kmh N 10.1 mph16.3 kmh 30.00 in1015.9 mb 0.00 in0.0 mm 0.00 in0.0 mm 0.00 in0.0 mm
11:18 AM 16.5°F-8.6°C 9.3°F-12.6°C 73% 4.0 mph N6.4 kmh N 5.8 mph9.3 kmh 30.00 in1015.9 mb 0.00 in0.0 mm 0.00 in0.0 mm 0.00 in0.0 mm
11:23 AM 16.5°F-8.6°C 9.7°F-12.4°C 74% 4.0 mph NNW6.4 kmh NNW 8.3 mph13.4 kmh 30.01 in1016.3 mb 0.00 in0.0 mm 0.00 in0.0 mm 0.00 in0.0 mm
11:28 AM 16.3°F-8.7°C 9.1°F-12.7°C 73% 4.0 mph N6.4 kmh N 6.3 mph10.1 kmh 30.01 in1016.3 mb 0.00 in0.0 mm 0.00 in0.0 mm 0.00 in0.0 mm
11:33 AM 16.3°F-8.7°C 8.6°F-13.0°C 71% 6.7 mph N10.8 kmh N 10.7 mph17.2 kmh 30.02 in1016.6 mb 0.00 in0.0 mm 0.00 in0.0 mm 0.00 in0.0 mm
11:38 AM 16.2°F-8.8°C 9.0°F-12.8°C 73% 6.0 mph 9.7 kmh 11.4 mph18.3 kmh 30.02 in1016.6 mb 0.00 in0.0 mm 0.00 in0.0 mm 0.00 in0.0 mm
11:43 AM 16.2°F-8.8°C 9.0°F-12.8°C 73% 5.4 mph NNW8.7 kmh NNW 9.4 mph15.1 kmh 30.03 in1016.9 mb 0.00 in0.0 mm 0.00 in0.0 mm 0.00 in0.0 mm
11:48 AM 16.2°F-8.8°C 9.3°F-12.6°C 74% 5.1 mph N8.2 kmh N 9.6 mph15.4 kmh 30.03 in1016.9 mb 0.00 in0.0 mm 0.00 in0.0 mm 0.00 in0.0 mm
11:53 AM 16.2°F-8.8°C 9.3°F-12.6°C 74% 4.0 mph NW6.4 kmh NW 6.3 mph10.1 kmh 30.03 in1016.9 mb 0.00 in0.0 mm 0.00 in0.0 mm 0.00 in0.0 mm
11:58 AM 16.0°F-8.9°C 8.8°F-12.9°C 73% 5.8 mph NW9.3 kmh NW 9.6 mph15.4 kmh 30.04 in1017.3 mb 0.00 in0.0 mm 0.00 in0.0 mm 0.00 in0.0 mm
12:03 PM 16.2°F-8.8°C 9.0°F-12.8°C 73% 3.8 mph NNW6.1 kmh NNW 5.6 mph9.0 kmh 30.03 in1016.9 mb 0.00 in0.0 mm 0.00 in0.0 mm 0.00 in0.0 mm
12:08 PM 16.2°F-8.8°C 9.3°F-12.6°C 74% 2.5 mph N4.0 kmh N 4.9 mph7.9 kmh 30.04 in1017.3 mb 0.00 in0.0 mm 0.00 in0.0 mm 0.00 in0.0 mm
12:13 PM 16.3°F-8.7°C 9.5°F-12.5°C 74% 3.8 mph N6.1 kmh N 5.8 mph9.3 kmh 30.04 in1017.3 mb 0.00 in0.0 mm 0.00 in0.0 mm 0.00 in0.0 mm
12:18 PM 16.0°F-8.9°C 8.8°F-12.9°C 73% 3.8 mph N6.1 kmh N 7.2 mph11.6 kmh 30.04 in1017.3 mb 0.00 in0.0 mm 0.00 in0.0 mm 0.00 in0.0 mm
12:23 PM 16.2°F-8.8°C 9.3°F-12.6°C 74% 3.4 mph NNW5.5 kmh NNW 4.9 mph7.9 kmh 30.04 in1017.3 mb 0.00 in0.0 mm 0.00 in0.0 mm 0.00 in0.0 mm
12:28 PM 16.2°F-8.8°C 9.0°F-12.8°C 73% 5.6 mph N9.0 kmh N 9.6 mph15.4 kmh 30.04 in1017.3 mb 0.00 in0.0 mm 0.00 in0.0 mm 0.00 in0.0 mm
12:33 PM 16.2°F-8.8°C 8.4°F-13.1°C 71% 4.9 mph NNE7.9 kmh NNE 11.0 mph17.7 kmh 30.04 in1017.3 mb 0.00 in0.0 mm 0.00 in0.0 mm 0.00 in0.0 mm
12:38 PM 16.2°F-8.8°C 8.1°F-13.3°C 70% 6.0 mph N9.7 kmh N 9.2 mph14.8 kmh 30.04 in1017.3 mb 0.00 in0.0 mm 0.00 in0.0 mm 0.00 in0.0 mm
12:43 PM 16.0°F-8.9°C 7.9°F-13.4°C 70% 8.5 mph N13.7 kmh N 14.1 mph22.7 kmh 30.04 in1017.3 mb 0.00 in0.0 mm 0.00 in0.0 mm 0.00 in0.0 mm
12:48 PM 16.0°F-8.9°C 8.8°F-12.9°C 73% 3.4 mph NNE5.5 kmh NNE 4.7 mph7.6 kmh 30.04 in1017.3 mb 0.00 in0.0 mm 0.00 in0.0 mm 0.00 in0.0 mm
12:53 PM 16.0°F-8.9°C 8.2°F-13.2°C 71% 4.0 mph N6.4 kmh N 6.0 mph9.7 kmh 30.04 in1017.3 mb 0.00 in0.0 mm 0.00 in0.0 mm 0.00 in0.0 mm
12:58 PM 16.2°F-8.8°C 8.4°F-13.1°C 71% 6.5 mph N10.5 kmh N 9.2 mph14.8 kmh 30.04 in1017.3 mb 0.00 in0.0 mm 0.00 in0.0 mm 0.00 in0.0 mm
01:03 PM 16.3°F-8.7°C 8.6°F-13.0°C 71% 3.4 mph NNE5.5 kmh NNE 6.3 mph10.1 kmh 30.04 in1017.3 mb 0.00 in0.0 mm 0.00 in0.0 mm 0.00 in0.0 mm
01:08 PM 16.2°F-8.8°C 8.4°F-13.1°C 71% 5.1 mph N8.2 kmh N 8.3 mph13.4 kmh 30.04 in1017.3 mb 0.00 in0.0 mm 0.00 in0.0 mm 0.00 in0.0 mm
01:13 PM 16.0°F-8.9°C 9.1°F-12.7°C 74% 3.8 mph NNE6.1 kmh NNE 7.4 mph11.9 kmh 30.04 in1017.3 mb 0.00 in0.0 mm 0.00 in0.0 mm 0.00 in0.0 mm
01:18 PM 16.2°F-8.8°C 9.0°F-12.8°C 73% 4.3 mph N6.9 kmh N 5.6 mph9.0 kmh 30.04 in1017.3 mb 0.00 in0.0 mm 0.00 in0.0 mm 0.00 in0.0 mm
01:23 PM 16.2°F-8.8°C 9.0°F-12.8°C 73% 5.6 mph N9.0 kmh N 11.0 mph17.7 kmh 30.04 in1017.3 mb 0.00 in0.0 mm 0.00 in0.0 mm 0.00 in0.0 mm
01:28 PM 16.2°F-8.8°C 9.0°F-12.8°C 73% 4.5 mph N7.2 kmh N 6.7 mph10.8 kmh 30.04 in1017.3 mb 0.00 in0.0 mm 0.00 in0.0 mm 0.00 in0.0 mm
01:33 PM 15.8°F-9.0°C 9.5°F-12.5°C 76% 3.8 mph NNE6.1 kmh NNE 6.5 mph10.5 kmh 30.04 in1017.3 mb 0.00 in0.0 mm 0.00 in0.0 mm 0.00 in0.0 mm
01:38 PM 16.0°F-8.9°C 9.7°F-12.4°C 76% 3.6 mph N5.8 kmh N 7.8 mph12.6 kmh 30.04 in1017.3 mb 0.00 in0.0 mm 0.00 in0.0 mm 0.00 in0.0 mm
01:43 PM 16.2°F-8.8°C 9.7°F-12.4°C 75% 3.4 mph N5.5 kmh N 6.0 mph9.7 kmh 30.04 in1017.3 mb 0.00 in0.0 mm 0.00 in0.0 mm 0.00 in0.0 mm
01:48 PM 16.3°F-8.7°C 8.6°F-13.0°C 71% 4.5 mph N7.2 kmh N 6.7 mph10.8 kmh 30.04 in1017.3 mb 0.00 in0.0 mm 0.00 in0.0 mm 0.00 in0.0 mm
01:53 PM 16.3°F-8.7°C 8.2°F-13.2°C 70% 6.9 mph NNE11.1 kmh NNE 10.5 mph16.9 kmh 30.04 in1017.3 mb 0.00 in0.0 mm 0.00 in0.0 mm 0.00 in0.0 mm
01:58 PM 16.5°F-8.6°C 8.4°F-13.1°C 70% 3.1 mph NNE5.0 kmh NNE 6.0 mph9.7 kmh 30.04 in1017.3 mb 0.00 in0.0 mm 0.00 in0.0 mm 0.00 in0.0 mm
02:03 PM 16.7°F-8.5°C 8.6°F-13.0°C 70% 3.4 mph N5.5 kmh N 6.7 mph10.8 kmh 30.04 in1017.3 mb 0.00 in0.0 mm 0.00 in0.0 mm 0.00 in0.0 mm
02:08 PM 16.7°F-8.5°C 7.9°F-13.4°C 68% 4.7 mph N7.6 kmh N 7.2 mph11.6 kmh 30.05 in1017.6 mb 0.00 in0.0 mm 0.00 in0.0 mm 0.00 in0.0 mm
02:13 PM 16.3°F-8.7°C 7.9°F-13.4°C 69% 4.9 mph N7.9 kmh N 8.9 mph14.3 kmh 30.05 in1017.6 mb 0.00 in0.0 mm 0.00 in0.0 mm 0.00 in0.0 mm
02:18 PM 16.2°F-8.8°C 7.7°F-13.5°C 69% 3.6 mph N5.8 kmh N 6.9 mph11.1 kmh 30.04 in1017.3 mb 0.00 in0.0 mm 0.00 in0.0 mm 0.00 in0.0 mm
02:23 PM 16.2°F-8.8°C 7.7°F-13.5°C 69% 5.8 mph NNE9.3 kmh NNE 9.2 mph14.8 kmh 30.04 in1017.3 mb 0.00 in0.0 mm 0.00 in0.0 mm 0.00 in0.0 mm
02:28 PM 16.2°F-8.8°C 7.7°F-13.5°C 69% 4.5 mph N7.2 kmh N 6.7 mph10.8 kmh 30.05 in1017.6 mb 0.00 in0.0 mm 0.00 in0.0 mm 0.00 in0.0 mm
02:33 PM 16.0°F-8.9°C 7.5°F-13.6°C 69% 4.0 mph NE6.4 kmh NE 6.7 mph10.8 kmh 30.05 in1017.6 mb 0.00 in0.0 mm 0.00 in0.0 mm 0.00 in0.0 mm
02:38 PM 16.0°F-8.9°C 7.5°F-13.6°C 69% 5.4 mph N8.7 kmh N 7.8 mph12.6 kmh 30.05 in1017.6 mb 0.00 in0.0 mm 0.00 in0.0 mm 0.00 in0.0 mm
02:43 PM 15.6°F-9.1°C 8.4°F-13.1°C 73% 4.9 mph N7.9 kmh N 7.8 mph12.6 kmh 30.05 in1017.6 mb 0.00 in0.0 mm 0.00 in0.0 mm 0.00 in0.0 mm
02:48 PM 15.3°F-9.3°C 8.8°F-12.9°C 75% 5.6 mph NE9.0 kmh NE 9.2 mph14.8 kmh 30.06 in1017.9 mb 0.00 in0.0 mm 0.00 in0.0 mm 0.00 in0.0 mm
02:53 PM 15.1°F-9.4°C 9.0°F-12.8°C 76% 4.3 mph NNE6.9 kmh NNE 11.0 mph17.7 kmh 30.05 in1017.6 mb 0.00 in0.0 mm 0.00 in0.0 mm 0.00 in0.0 mm
02:58 PM 14.9°F-9.5°C 9.3°F-12.6°C 78% 2.5 mph NE4.0 kmh NE 5.6 mph9.0 kmh 30.06 in1017.9 mb 0.00 in0.0 mm 0.00 in0.0 mm 0.00 in0.0 mm
03:03 PM 14.9°F-9.5°C 9.9°F-12.3°C 80% 5.4 mph NNE8.7 kmh NNE 7.4 mph11.9 kmh 30.06 in1017.9 mb 0.00 in0.0 mm 0.00 in0.0 mm 0.00 in0.0 mm
03:08 PM 14.9°F-9.5°C 9.9°F-12.3°C 80% 4.0 mph NNE6.4 kmh NNE 6.5 mph10.5 kmh 30.06 in1017.9 mb 0.00 in0.0 mm 0.00 in0.0 mm 0.00 in0.0 mm
03:13 PM 14.9°F-9.5°C 10.0°F-12.2°C 81% 2.9 mph NNE4.7 kmh NNE 5.1 mph8.2 kmh 30.07 in1018.3 mb 0.00 in0.0 mm 0.00 in0.0 mm 0.00 in0.0 mm
03:18 PM 14.7°F-9.6°C 9.9°F-12.3°C 81% 5.4 mph N8.7 kmh N 8.3 mph13.4 kmh 30.06 in1017.9 mb 0.00 in0.0 mm 0.00 in0.0 mm 0.00 in0.0 mm
03:23 PM 14.7°F-9.6°C 9.9°F-12.3°C 81% 3.1 mph N5.0 kmh N 4.7 mph7.6 kmh 30.07 in1018.3 mb 0.00 in0.0 mm 0.00 in0.0 mm 0.00 in0.0 mm
03:28 PM 14.5°F-9.7°C 10.4°F-12.0°C 83% 4.3 mph N6.9 kmh N 7.2 mph11.6 kmh 30.07 in1018.3 mb 0.00 in0.0 mm 0.00 in0.0 mm 0.00 in0.0 mm
03:33 PM 14.4°F-9.8°C 10.2°F-12.1°C 83% 5.8 mph NNE9.3 kmh NNE 8.3 mph13.4 kmh 30.08 in1018.6 mb 0.00 in0.0 mm 0.00 in0.0 mm 0.00 in0.0 mm
03:38 PM 14.5°F-9.7°C 10.4°F-12.0°C 83% 2.2 mph NNE3.5 kmh NNE 3.1 mph5.0 kmh 30.07 in1018.3 mb 0.00 in0.0 mm 0.00 in0.0 mm 0.00 in0.0 mm
03:43 PM 14.7°F-9.6°C 9.9°F-12.3°C 81% 3.4 mph NNE5.5 kmh NNE 5.1 mph8.2 kmh 30.08 in1018.6 mb 0.00 in0.0 mm 0.00 in0.0 mm 0.00 in0.0 mm
03:48 PM 14.7°F-9.6°C 9.9°F-12.3°C 81% 5.4 mph NNW8.7 kmh NNW 8.7 mph14.0 kmh 30.08 in1018.6 mb 0.00 in0.0 mm 0.00 in0.0 mm 0.00 in0.0 mm
03:53 PM 14.4°F-9.8°C 10.2°F-12.1°C 83% 3.1 mph NNE5.0 kmh NNE 4.5 mph7.2 kmh 30.09 in1019.0 mb 0.00 in0.0 mm 0.00 in0.0 mm 0.00 in0.0 mm
03:58 PM 14.2°F-9.9°C 10.2°F-12.1°C 84% 2.7 mph N4.3 kmh N 5.6 mph9.0 kmh 30.09 in1019.0 mb 0.00 in0.0 mm 0.00 in0.0 mm 0.00 in0.0 mm
04:03 PM 14.0°F-10.0°C 10.0°F-12.2°C 84% 4.3 mph N6.9 kmh N 6.9 mph11.1 kmh 30.09 in1019.0 mb 0.00 in0.0 mm 0.00 in0.0 mm 0.00 in0.0 mm
04:08 PM 14.0°F-10.0°C 10.4°F-12.0°C 85% 4.7 mph NNE7.6 kmh NNE 9.8 mph15.8 kmh 30.10 in1019.3 mb 0.00 in0.0 mm 0.00 in0.0 mm 0.00 in0.0 mm
04:13 PM 13.8°F-10.1°C 9.9°F-12.3°C 84% 4.9 mph NNE7.9 kmh NNE 8.5 mph13.7 kmh 30.10 in1019.3 mb 0.00 in0.0 mm 0.00 in0.0 mm 0.00 in0.0 mm
04:18 PM 13.8°F-10.1°C 10.2°F-12.1°C 85% 4.9 mph NNE7.9 kmh NNE 7.6 mph12.2 kmh 30.10 in1019.3 mb 0.00 in0.0 mm 0.00 in0.0 mm 0.00 in0.0 mm
04:23 PM 13.8°F-10.1°C 10.2°F-12.1°C 85% 5.6 mph N9.0 kmh N 11.0 mph17.7 kmh 30.10 in1019.3 mb 0.00 in0.0 mm 0.00 in0.0 mm 0.00 in0.0 mm
04:28 PM 13.8°F-10.1°C 9.9°F-12.3°C 84% 4.7 mph N7.6 kmh N 8.9 mph14.3 kmh 30.11 in1019.6 mb 0.00 in0.0 mm 0.00 in0.0 mm 0.00 in0.0 mm
04:33 PM 13.6°F-10.2°C 9.7°F-12.4°C 84% 5.4 mph N8.7 kmh N 8.5 mph13.7 kmh 30.11 in1019.6 mb 0.00 in0.0 mm 0.00 in0.0 mm 0.00 in0.0 mm
04:38 PM 13.3°F-10.4°C 9.3°F-12.6°C 84% 3.1 mph NNE5.0 kmh NNE 7.2 mph11.6 kmh 30.11 in1019.6 mb 0.00 in0.0 mm 0.00 in0.0 mm 0.00 in0.0 mm
04:43 PM 13.5°F-10.3°C 9.5°F-12.5°C 84% 2.2 mph NNE3.5 kmh NNE 4.0 mph6.4 kmh 30.11 in1019.6 mb 0.00 in0.0 mm 0.00 in0.0 mm 0.00 in0.0 mm
04:48 PM 13.5°F-10.3°C 9.5°F-12.5°C 84% 4.3 mph 6.9 kmh 8.5 mph13.7 kmh 30.12 in1020.0 mb 0.00 in0.0 mm 0.00 in0.0 mm 0.00 in0.0 mm
04:53 PM 13.6°F-10.2°C 10.0°F-12.2°C 85% 3.4 mph NNE5.5 kmh NNE 6.3 mph10.1 kmh 30.12 in1020.0 mb 0.00 in0.0 mm 0.00 in0.0 mm 0.00 in0.0 mm
04:58 PM 14.0°F-10.0°C 10.4°F-12.0°C 85% 3.1 mph NNE5.0 kmh NNE 4.7 mph7.6 kmh 30.12 in1020.0 mb 0.00 in0.0 mm 0.00 in0.0 mm 0.00 in0.0 mm
05:03 PM 14.0°F-10.0°C 9.9°F-12.3°C 83% 3.6 mph N5.8 kmh N 7.4 mph11.9 kmh 30.12 in1020.0 mb 0.00 in0.0 mm 0.00 in0.0 mm 0.00 in0.0 mm
05:08 PM 13.6°F-10.2°C 9.0°F-12.8°C 81% 3.4 mph N5.5 kmh N 6.5 mph10.5 kmh 30.12 in1020.0 mb 0.00 in0.0 mm 0.00 in0.0 mm 0.00 in0.0 mm
05:13 PM 13.5°F-10.3°C 8.8°F-12.9°C 81% 4.3 mph N6.9 kmh N 6.5 mph10.5 kmh 30.13 in1020.3 mb 0.00 in0.0 mm 0.00 in0.0 mm 0.00 in0.0 mm
05:18 PM 13.3°F-10.4°C 8.6°F-13.0°C 81% 3.8 mph N6.1 kmh N 6.9 mph11.1 kmh 30.13 in1020.3 mb 0.00 in0.0 mm 0.00 in0.0 mm 0.00 in0.0 mm
05:23 PM 13.3°F-10.4°C 9.1°F-12.7°C 83% 2.9 mph N4.7 kmh N 4.0 mph6.4 kmh 30.13 in1020.3 mb 0.00 in0.0 mm 0.00 in0.0 mm 0.00 in0.0 mm
05:28 PM 13.5°F-10.3°C 8.8°F-12.9°C 81% 5.1 mph NNE8.2 kmh NNE 10.1 mph16.3 kmh 30.14 in1020.7 mb 0.00 in0.0 mm 0.00 in0.0 mm 0.00 in0.0 mm
05:33 PM 13.1°F-10.5°C 8.4°F-13.1°C 81% 2.5 mph N4.0 kmh N 5.1 mph8.2 kmh 30.14 in1020.7 mb 0.00 in0.0 mm 0.00 in0.0 mm 0.00 in0.0 mm
05:38 PM 13.1°F-10.5°C 7.9°F-13.4°C 79% 3.8 mph N6.1 kmh N 6.9 mph11.1 kmh 30.14 in1020.7 mb 0.00 in0.0 mm 0.00 in0.0 mm 0.00 in0.0 mm
05:43 PM 13.1°F-10.5°C 7.5°F-13.6°C 78% 5.6 mph N9.0 kmh N 8.7 mph14.0 kmh 30.14 in1020.7 mb 0.00 in0.0 mm 0.00 in0.0 mm 0.00 in0.0 mm
05:48 PM 13.1°F-10.5°C 7.5°F-13.6°C 78% 3.4 mph N5.5 kmh N 5.6 mph9.0 kmh 30.15 in1021.0 mb 0.00 in0.0 mm 0.00 in0.0 mm 0.00 in0.0 mm
05:53 PM 14.0°F-10.0°C 7.9°F-13.4°C 76% 3.6 mph NNE5.8 kmh NNE 6.0 mph9.7 kmh 30.15 in1021.0 mb 0.00 in0.0 mm 0.00 in0.0 mm 0.00 in0.0 mm
05:58 PM 13.3°F-10.4°C 6.6°F-14.1°C 74% 4.5 mph 7.2 kmh 6.9 mph11.1 kmh 30.16 in1021.3 mb 0.00 in0.0 mm 0.00 in0.0 mm 0.00 in0.0 mm
06:03 PM 12.7°F-10.7°C 6.3°F-14.3°C 75% 2.2 mph NNE3.5 kmh NNE 4.5 mph7.2 kmh 30.16 in1021.3 mb 0.00 in0.0 mm 0.00 in0.0 mm 0.00 in0.0 mm
06:08 PM 12.6°F-10.8°C 7.0°F-13.9°C 78% 2.5 mph NNE4.0 kmh NNE 3.6 mph5.8 kmh 30.16 in1021.3 mb 0.00 in0.0 mm 0.00 in0.0 mm 0.00 in0.0 mm
06:13 PM 12.4°F-10.9°C 6.8°F-14.0°C 78% 2.7 mph N4.3 kmh N 5.6 mph9.0 kmh 30.16 in1021.3 mb 0.00 in0.0 mm 0.00 in0.0 mm 0.00 in0.0 mm
06:18 PM 12.2°F-11.0°C 6.1°F-14.4°C 76% 2.5 mph N4.0 kmh N 4.5 mph7.2 kmh 30.16 in1021.3 mb 0.00 in0.0 mm 0.00 in0.0 mm 0.00 in0.0 mm
06:23 PM 11.8°F-11.2°C 5.4°F-14.8°C 75% 3.6 mph N5.8 kmh N 6.7 mph10.8 kmh 30.17 in1021.7 mb 0.00 in0.0 mm 0.00 in0.0 mm 0.00 in0.0 mm
06:28 PM 12.0°F-11.1°C 5.4°F-14.8°C 74% 4.9 mph N7.9 kmh N 7.6 mph12.2 kmh 30.17 in1021.7 mb 0.00 in0.0 mm 0.00 in0.0 mm 0.00 in0.0 mm
06:33 PM 12.0°F-11.1°C 4.5°F-15.3°C 71% 3.1 mph NNE5.0 kmh NNE 5.6 mph9.0 kmh 30.18 in1022.0 mb 0.00 in0.0 mm 0.00 in0.0 mm 0.00 in0.0 mm
06:38 PM 11.8°F-11.2°C 4.8°F-15.1°C 73% 3.6 mph N5.8 kmh N 6.5 mph10.5 kmh 30.18 in1022.0 mb 0.00 in0.0 mm 0.00 in0.0 mm 0.00 in0.0 mm
06:43 PM 11.7°F-11.3°C 4.6°F-15.2°C 73% 3.1 mph NE5.0 kmh NE 5.4 mph8.7 kmh 30.18 in1022.0 mb 0.00 in0.0 mm 0.00 in0.0 mm 0.00 in0.0 mm
06:48 PM 11.8°F-11.2°C 5.4°F-14.8°C 75% 4.3 mph N6.9 kmh N 6.5 mph10.5 kmh 30.18 in1022.0 mb 0.00 in0.0 mm 0.00 in0.0 mm 0.00 in0.0 mm
06:53 PM 11.8°F-11.2°C 5.7°F-14.6°C 76% 2.0 mph NNE3.2 kmh NNE 3.6 mph5.8 kmh 30.19 in1022.4 mb 0.00 in0.0 mm 0.00 in0.0 mm 0.00 in0.0 mm
06:58 PM 11.8°F-11.2°C 6.3°F-14.3°C 78% 3.1 mph N5.0 kmh N 7.6 mph12.2 kmh 30.19 in1022.4 mb 0.00 in0.0 mm 0.00 in0.0 mm 0.00 in0.0 mm
07:03 PM 11.8°F-11.2°C 6.3°F-14.3°C 78% 6.0 mph N9.7 kmh N 9.8 mph15.8 kmh 30.19 in1022.4 mb 0.00 in0.0 mm 0.00 in0.0 mm 0.00 in0.0 mm
07:08 PM 11.3°F-11.5°C 7.2°F-13.8°C 83% 2.5 mph N4.0 kmh N 4.7 mph7.6 kmh 30.19 in1022.4 mb 0.00 in0.0 mm 0.00 in0.0 mm 0.00 in0.0 mm
07:13 PM 11.1°F-11.6°C 7.2°F-13.8°C 84% 3.4 mph N5.5 kmh N 4.7 mph7.6 kmh 30.19 in1022.4 mb 0.00 in0.0 mm 0.00 in0.0 mm 0.00 in0.0 mm
07:18 PM 11.1°F-11.6°C 7.2°F-13.8°C 84% 2.9 mph N4.7 kmh N 4.9 mph7.9 kmh 30.19 in1022.4 mb 0.00 in0.0 mm 0.00 in0.0 mm 0.00 in0.0 mm
07:23 PM 10.9°F-11.7°C 6.8°F-14.0°C 83% 2.0 mph N3.2 kmh N 3.8 mph6.1 kmh 30.19 in1022.4 mb 0.00 in0.0 mm 0.00 in0.0 mm 0.00 in0.0 mm
07:28 PM 11.1°F-11.6°C 6.4°F-14.2°C 81% 2.5 mph N4.0 kmh N 4.3 mph6.9 kmh 30.20 in1022.7 mb 0.00 in0.0 mm 0.00 in0.0 mm 0.00 in0.0 mm
07:33 PM 10.9°F-11.7°C 5.9°F-14.5°C 80% 2.7 mph NNE4.3 kmh NNE 4.7 mph7.6 kmh 30.20 in1022.7 mb 0.00 in0.0 mm 0.00 in0.0 mm 0.00 in0.0 mm
07:38 PM 10.9°F-11.7°C 5.7°F-14.6°C 79% 3.4 mph NE5.5 kmh NE 7.4 mph11.9 kmh 30.21 in1023.0 mb 0.00 in0.0 mm 0.00 in0.0 mm 0.00 in0.0 mm
07:43 PM 10.9°F-11.7°C 4.6°F-15.2°C 75% 3.6 mph N5.8 kmh N 7.4 mph11.9 kmh 30.21 in1023.0 mb 0.00 in0.0 mm 0.00 in0.0 mm 0.00 in0.0 mm
07:48 PM 11.1°F-11.6°C 4.8°F-15.1°C 75% 3.4 mph N5.5 kmh N 7.8 mph12.6 kmh 30.22 in1023.4 mb 0.00 in0.0 mm 0.00 in0.0 mm 0.00 in0.0 mm
07:53 PM 10.9°F-11.7°C 5.9°F-14.5°C 80% 2.2 mph N3.5 kmh N 3.6 mph5.8 kmh 30.22 in1023.4 mb 0.00 in0.0 mm 0.00 in0.0 mm 0.00 in0.0 mm
07:58 PM 10.8°F-11.8°C 6.1°F-14.4°C 81% 3.1 mph NNE5.0 kmh NNE 4.9 mph7.9 kmh 30.22 in1023.4 mb 0.00 in0.0 mm 0.00 in0.0 mm 0.00 in0.0 mm
08:03 PM 10.6°F-11.9°C 7.0°F-13.9°C 85% 5.4 mph N8.7 kmh N 6.7 mph10.8 kmh 30.22 in1023.4 mb 0.00 in0.0 mm 0.00 in0.0 mm 0.00 in0.0 mm
08:08 PM 10.6°F-11.9°C 7.2°F-13.8°C 86% 4.0 mph N6.4 kmh N 7.8 mph12.6 kmh 30.23 in1023.7 mb 0.00 in0.0 mm 0.00 in0.0 mm 0.00 in0.0 mm
08:13 PM 10.6°F-11.9°C 7.2°F-13.8°C 86% 3.6 mph N5.8 kmh N 5.8 mph9.3 kmh 30.23 in1023.7 mb 0.00 in0.0 mm 0.00 in0.0 mm 0.00 in0.0 mm
08:18 PM 10.6°F-11.9°C 7.2°F-13.8°C 86% 3.6 mph N5.8 kmh N 5.6 mph9.0 kmh 30.23 in1023.7 mb 0.00 in0.0 mm 0.00 in0.0 mm 0.00 in0.0 mm
08:23 PM 10.6°F-11.9°C 7.2°F-13.8°C 86% 3.1 mph NE5.0 kmh NE 5.6 mph9.0 kmh 30.23 in1023.7 mb 0.00 in0.0 mm 0.00 in0.0 mm 0.00 in0.0 mm
08:28 PM 10.6°F-11.9°C 7.2°F-13.8°C 86% 3.6 mph NNE5.8 kmh NNE 7.6 mph12.2 kmh 30.23 in1023.7 mb 0.00 in0.0 mm 0.00 in0.0 mm 0.00 in0.0 mm
08:33 PM 10.6°F-11.9°C 7.0°F-13.9°C 85% 2.2 mph N3.5 kmh N 3.6 mph5.8 kmh 30.24 in1024.0 mb 0.00 in0.0 mm 0.00 in0.0 mm 0.00 in0.0 mm
08:38 PM 10.6°F-11.9°C 7.0°F-13.9°C 85% 2.7 mph NNE4.3 kmh NNE 4.9 mph7.9 kmh 30.24 in1024.0 mb 0.00 in0.0 mm 0.00 in0.0 mm 0.00 in0.0 mm
08:43 PM 10.4°F-12.0°C 6.4°F-14.2°C 84% 4.0 mph N6.4 kmh N 7.2 mph11.6 kmh 30.24 in1024.0 mb 0.00 in0.0 mm 0.00 in0.0 mm 0.00 in0.0 mm
08:48 PM 10.0°F-12.2°C 6.6°F-14.1°C 86% 3.1 mph NE5.0 kmh NE 6.9 mph11.1 kmh 30.24 in1024.0 mb 0.00 in0.0 mm 0.00 in0.0 mm 0.00 in0.0 mm
08:53 PM 10.0°F-12.2°C 6.6°F-14.1°C 86% 4.5 mph N7.2 kmh N 8.1 mph13.0 kmh 30.24 in1024.0 mb 0.00 in0.0 mm 0.00 in0.0 mm 0.00 in0.0 mm
08:58 PM 9.9°F-12.3°C 6.4°F-14.2°C 86% 2.9 mph NNE4.7 kmh NNE 5.1 mph8.2 kmh 30.25 in1024.4 mb 0.00 in0.0 mm 0.00 in0.0 mm 0.00 in0.0 mm
09:03 PM 9.9°F-12.3°C 6.4°F-14.2°C 86% 2.5 mph NNE4.0 kmh NNE 4.7 mph7.6 kmh 30.25 in1024.4 mb 0.00 in0.0 mm 0.00 in0.0 mm 0.00 in0.0 mm
09:08 PM 9.9°F-12.3°C 6.4°F-14.2°C 86% 2.0 mph NNE3.2 kmh NNE 4.9 mph7.9 kmh 30.25 in1024.4 mb 0.00 in0.0 mm 0.00 in0.0 mm 0.00 in0.0 mm
09:18 PM 9.7°F-12.4°C 6.1°F-14.4°C 85% 2.9 mph N4.7 kmh N 4.9 mph7.9 kmh 30.26 in1024.7 mb 0.00 in0.0 mm 0.00 in0.0 mm 0.00 in0.0 mm
09:23 PM 9.5°F-12.5°C 5.9°F-14.5°C 85% 2.7 mph NNE4.3 kmh NNE 4.5 mph7.2 kmh 30.26 in1024.7 mb 0.00 in0.0 mm 0.00 in0.0 mm 0.00 in0.0 mm
09:28 PM 9.5°F-12.5°C 5.9°F-14.5°C 85% 2.5 mph N4.0 kmh N 4.0 mph6.4 kmh 30.26 in1024.7 mb 0.00 in0.0 mm 0.00 in0.0 mm 0.00 in0.0 mm
09:33 PM 9.5°F-12.5°C 5.9°F-14.5°C 85% 4.0 mph N6.4 kmh N 6.5 mph10.5 kmh 30.26 in1024.7 mb 0.00 in0.0 mm 0.00 in0.0 mm 0.00 in0.0 mm
09:38 PM 9.7°F-12.4°C 6.3°F-14.3°C 86% 3.4 mph NE5.5 kmh NE 7.6 mph12.2 kmh 30.26 in1024.7 mb 0.00 in0.0 mm 0.00 in0.0 mm 0.00 in0.0 mm
09:43 PM 9.3°F-12.6°C 5.9°F-14.5°C 86% 4.7 mph NE7.6 kmh NE 9.2 mph14.8 kmh 30.26 in1024.7 mb 0.00 in0.0 mm 0.00 in0.0 mm 0.00 in0.0 mm
09:48 PM 9.1°F-12.7°C 5.4°F-14.8°C 84% 2.5 mph N4.0 kmh N 4.9 mph7.9 kmh 30.26 in1024.7 mb 0.00 in0.0 mm 0.00 in0.0 mm 0.00 in0.0 mm
09:53 PM 9.0°F-12.8°C 5.4°F-14.8°C 85% 2.9 mph NNE4.7 kmh NNE 6.3 mph10.1 kmh 30.26 in1024.7 mb 0.00 in0.0 mm 0.00 in0.0 mm 0.00 in0.0 mm
09:58 PM 9.0°F-12.8°C 5.4°F-14.8°C 85% 3.1 mph NNE5.0 kmh NNE 6.7 mph10.8 kmh 30.26 in1024.7 mb 0.00 in0.0 mm 0.00 in0.0 mm 0.00 in0.0 mm
10:03 PM 9.0°F-12.8°C 5.4°F-14.8°C 85% 3.1 mph N5.0 kmh N 7.4 mph11.9 kmh 30.26 in1024.7 mb 0.00 in0.0 mm 0.00 in0.0 mm 0.00 in0.0 mm
10:09 PM 8.6°F-13.0°C 5.0°F-15.0°C 85% 2.0 mph NNE3.2 kmh NNE 4.7 mph7.6 kmh 30.27 in1025.1 mb 0.00 in0.0 mm 0.00 in0.0 mm 0.00 in0.0 mm
10:13 PM 8.4°F-13.1°C 4.8°F-15.1°C 85% 4.0 mph NNE6.4 kmh NNE 9.4 mph15.1 kmh 30.27 in1025.1 mb 0.00 in0.0 mm 0.00 in0.0 mm 0.00 in0.0 mm
10:18 PM 8.6°F-13.0°C 5.0°F-15.0°C 85% 4.0 mph NNE6.4 kmh NNE 10.5 mph16.9 kmh 30.27 in1025.1 mb 0.00 in0.0 mm 0.00 in0.0 mm 0.00 in0.0 mm
10:23 PM 8.4°F-13.1°C 4.8°F-15.1°C 85% 2.5 mph N4.0 kmh N 5.8 mph9.3 kmh 30.26 in1024.7 mb 0.00 in0.0 mm 0.00 in0.0 mm 0.00 in0.0 mm
10:28 PM 8.4°F-13.1°C 4.8°F-15.1°C 85% 3.1 mph N5.0 kmh N 4.7 mph7.6 kmh 30.27 in1025.1 mb 0.00 in0.0 mm 0.00 in0.0 mm 0.00 in0.0 mm
10:33 PM 8.4°F-13.1°C 4.8°F-15.1°C 85% 3.8 mph NE6.1 kmh NE 12.5 mph20.1 kmh 30.27 in1025.1 mb 0.00 in0.0 mm 0.00 in0.0 mm 0.00 in0.0 mm
10:38 PM 8.4°F-13.1°C 5.2°F-14.9°C 86% 4.3 mph NE6.9 kmh NE 10.5 mph16.9 kmh 30.27 in1025.1 mb 0.00 in0.0 mm 0.00 in0.0 mm 0.00 in0.0 mm
10:43 PM 8.4°F-13.1°C 4.8°F-15.1°C 85% 2.2 mph NNE3.5 kmh NNE 6.0 mph9.7 kmh 30.27 in1025.1 mb 0.00 in0.0 mm 0.00 in0.0 mm 0.00 in0.0 mm
10:48 PM 8.4°F-13.1°C 4.8°F-15.1°C 85% 4.0 mph N6.4 kmh N 7.2 mph11.6 kmh 30.27 in1025.1 mb 0.00 in0.0 mm 0.00 in0.0 mm 0.00 in0.0 mm
10:53 PM 8.4°F-13.1°C 4.8°F-15.1°C 85% 2.7 mph NNE4.3 kmh NNE 7.2 mph11.6 kmh 30.27 in1025.1 mb 0.00 in0.0 mm 0.00 in0.0 mm 0.00 in0.0 mm
10:58 PM 8.4°F-13.1°C 4.8°F-15.1°C 85% 3.4 mph NE5.5 kmh NE 6.0 mph9.7 kmh 30.27 in1025.1 mb 0.00 in0.0 mm 0.00 in0.0 mm 0.00 in0.0 mm
11:03 PM 8.4°F-13.1°C 5.2°F-14.9°C 86% 3.1 mph NNE5.0 kmh NNE 6.5 mph10.5 kmh 30.27 in1025.1 mb 0.00 in0.0 mm 0.00 in0.0 mm 0.00 in0.0 mm
11:09 PM 8.2°F-13.2°C 5.0°F-15.0°C 86% 4.3 mph NE6.9 kmh NE 8.5 mph13.7 kmh 30.27 in1025.1 mb 0.00 in0.0 mm 0.00 in0.0 mm 0.00 in0.0 mm
11:13 PM 8.4°F-13.1°C 5.2°F-14.9°C 86% 3.8 mph NNE6.1 kmh NNE 8.5 mph13.7 kmh 30.28 in1025.4 mb 0.00 in0.0 mm 0.00 in0.0 mm 0.00 in0.0 mm
11:19 PM 8.4°F-13.1°C 5.2°F-14.9°C 86% 2.2 mph NNW3.5 kmh NNW 7.2 mph11.6 kmh 30.28 in1025.4 mb 0.00 in0.0 mm 0.00 in0.0 mm 0.00 in0.0 mm
11:24 PM 8.6°F-13.0°C 5.4°F-14.8°C 86% 3.6 mph N5.8 kmh N 11.4 mph18.3 kmh 30.28 in1025.4 mb 0.00 in0.0 mm 0.00 in0.0 mm 0.00 in0.0 mm
11:29 PM 8.6°F-13.0°C 5.4°F-14.8°C 86% 3.4 mph N5.5 kmh N 7.2 mph11.6 kmh 30.29 in1025.7 mb 0.00 in0.0 mm 0.00 in0.0 mm 0.00 in0.0 mm
11:34 PM 8.4°F-13.1°C 4.8°F-15.1°C 85% 2.2 mph NNE3.5 kmh NNE 5.4 mph8.7 kmh 30.29 in1025.7 mb 0.00 in0.0 mm 0.00 in0.0 mm 0.00 in0.0 mm
11:39 PM 8.4°F-13.1°C 4.8°F-15.1°C 85% 3.6 mph NE5.8 kmh NE 9.2 mph14.8 kmh 30.29 in1025.7 mb 0.00 in0.0 mm 0.00 in0.0 mm 0.00 in0.0 mm
11:44 PM 8.4°F-13.1°C 4.8°F-15.1°C 85% 3.4 mph NNE5.5 kmh NNE 5.6 mph9.0 kmh 30.29 in1025.7 mb 0.00 in0.0 mm 0.00 in0.0 mm 0.00 in0.0 mm
11:49 PM 8.4°F-13.1°C 4.8°F-15.1°C 85% 3.8 mph NE6.1 kmh NE 7.6 mph12.2 kmh 30.29 in1025.7 mb 0.00 in0.0 mm 0.00 in0.0 mm 0.00 in0.0 mm
11:54 PM 8.4°F-13.1°C 4.8°F-15.1°C 85% 2.5 mph NNE4.0 kmh NNE 6.0 mph9.7 kmh 30.29 in1025.7 mb 0.00 in0.0 mm 0.00 in0.0 mm 0.00 in0.0 mm
11:59 PM 8.4°F-13.1°C 4.8°F-15.1°C 85% 2.2 mph N3.5 kmh N 4.3 mph6.9 kmh 30.29 in1025.7 mb 0.00 in0.0 mm 0.00 in0.0 mm 0.00 in0.0 mm